Time;durP1;ratioP1;P1;durP2;ratioP2;P2;SDS_P1;SDS_P2;PMS_P1;PMS_P2;Temp;Humidity;BMP_temperature;BMP_pressure;BME280_temperature;BME280_humidity;BME280_pressure;Samples;Min_cycle;Max_cycle;Signal;HPM_P1;HPM_P2
2021/11/06 00:02:30;0.00;0.00;0.62;0.00;0.00;0.62;2.73;1.70;;;23.00;29.00;;;;;;2261814;61;20386;-60
2021/11/06 00:05:15;0.00;0.00;0.62;0.00;0.00;0.62;2.47;1.40;;;22.90;28.90;;;;;;2261632;61;20366;-60
2021/11/06 00:07:59;0.00;0.00;0.62;0.00;0.00;0.62;2.17;1.27;;;23.00;29.00;;;;;;2261400;61;20422;-60
2021/11/06 00:10:44;0.00;0.00;0.62;0.00;0.00;0.62;1.90;1.20;;;23.00;29.00;;;;;;2262113;61;20381;-60
2021/11/06 00:13:29;0.00;0.00;0.62;0.00;0.00;0.62;2.83;1.30;;;23.00;29.00;;;;;;2261804;61;20350;-60
2021/11/06 00:16:13;0.00;0.00;0.62;0.00;0.00;0.62;2.00;1.33;;;22.90;29.00;;;;;;2261770;61;20362;-60
2021/11/06 00:18:59;0.00;0.00;0.62;0.00;0.00;0.62;2.20;1.43;;;22.90;29.00;;;;;;2261982;61;20790;-59
2021/11/06 00:21:44;0.00;0.00;0.62;0.00;0.00;0.62;2.60;1.60;;;23.00;29.10;;;;;;2262140;61;20381;-60
2021/11/06 00:24:28;0.00;0.00;0.62;0.00;0.00;0.62;1.43;1.00;;;23.00;29.10;;;;;;2261527;61;20376;-59
2021/11/06 00:27:13;0.00;0.00;0.62;0.00;0.00;0.62;2.47;1.20;;;22.90;29.00;;;;;;2261174;61;20397;-57
2021/11/06 00:29:57;0.00;0.00;0.62;0.00;0.00;0.62;2.50;1.67;;;23.00;29.10;;;;;;2262006;61;20593;-58
2021/11/06 00:32:42;0.00;0.00;0.62;0.00;0.00;0.62;2.17;1.30;;;23.00;29.60;;;;;;2261949;61;20374;-59
2021/11/06 00:35:29;0.00;0.00;0.62;0.00;0.00;0.62;2.80;1.77;;;22.90;29.00;;;;;;2261673;61;20358;-61
2021/11/06 00:38:14;0.00;0.00;0.62;0.00;0.00;0.62;1.80;1.20;;;23.00;29.00;;;;;;2261417;61;20456;-56
2021/11/06 00:40:59;0.00;0.00;0.62;0.00;0.00;0.62;1.90;1.13;;;23.00;29.10;;;;;;2261230;61;20381;-58
2021/11/06 00:43:43;0.00;0.00;0.62;0.00;0.00;0.62;1.77;1.07;;;22.90;29.00;;;;;;2261407;61;20366;-61
2021/11/06 00:46:28;0.00;0.00;0.62;0.00;0.00;0.62;2.00;1.20;;;23.00;29.10;;;;;;2261825;61;20365;-59
2021/11/06 00:49:12;0.00;0.00;0.62;0.00;0.00;0.62;2.30;1.40;;;23.00;29.10;;;;;;2261514;61;20358;-60
2021/11/06 00:51:58;0.00;0.00;0.62;0.00;0.00;0.62;1.87;1.37;;;23.00;29.10;;;;;;2261928;61;20436;-59
2021/11/06 00:54:43;0.00;0.00;0.62;0.00;0.00;0.62;2.17;1.20;;;23.00;29.10;;;;;;2261776;61;20365;-61
2021/11/06 00:57:28;0.00;0.00;0.62;0.00;0.00;0.62;1.90;1.50;;;23.00;29.10;;;;;;2261548;61;20358;-61
2021/11/06 01:00:17;0.00;0.00;0.62;0.00;0.00;0.62;1.90;1.40;;;23.00;29.10;;;;;;2261544;61;20412;-59
2021/11/06 01:03:02;0.00;0.00;0.62;0.00;0.00;0.62;1.93;1.20;;;23.00;29.10;;;;;;2261748;61;20793;-59
2021/11/06 01:05:47;0.00;0.00;0.62;0.00;0.00;0.62;1.80;1.00;;;23.00;29.10;;;;;;2261720;61;20470;-58
2021/11/06 01:08:32;0.00;0.00;0.62;0.00;0.00;0.62;1.60;1.10;;;23.00;29.10;;;;;;2261279;61;20393;-61
2021/11/06 01:11:17;0.00;0.00;0.62;0.00;0.00;0.62;2.40;1.60;;;23.00;29.10;;;;;;2261077;61;20770;-60
2021/11/06 01:14:03;0.00;0.00;0.62;0.00;0.00;0.62;2.17;1.30;;;23.00;29.10;;;;;;2261666;61;20354;-60
2021/11/06 01:16:48;0.00;0.00;0.62;0.00;0.00;0.62;1.60;1.00;;;23.00;29.10;;;;;;2261703;61;20410;-60
2021/11/06 01:19:32;0.00;0.00;0.62;0.00;0.00;0.62;2.00;1.10;;;23.00;29.10;;;;;;2261350;61;20353;-58
2021/11/06 01:22:17;0.00;0.00;0.62;0.00;0.00;0.62;1.80;1.10;;;23.00;29.10;;;;;;2261512;61;20670;-58
2021/11/06 01:25:04;0.00;0.00;0.62;0.00;0.00;0.62;2.10;1.10;;;23.00;29.10;;;;;;2261725;61;20357;-59
2021/11/06 01:27:49;0.00;0.00;0.62;0.00;0.00;0.62;1.60;1.10;;;23.00;29.10;;;;;;2261273;61;20370;-60
2021/11/06 01:30:34;0.00;0.00;0.62;0.00;0.00;0.62;2.40;1.20;;;23.00;29.10;;;;;;2261595;61;20378;-61
2021/11/06 01:33:19;0.00;0.00;0.62;0.00;0.00;0.62;1.60;1.10;;;23.00;29.10;;;;;;2261389;61;20438;-60
2021/11/06 01:36:04;0.00;0.00;0.62;0.00;0.00;0.62;1.70;1.10;;;23.00;29.10;;;;;;2261280;61;20385;-56
2021/11/06 01:38:49;0.00;0.00;0.62;0.00;0.00;0.62;1.77;1.23;;;23.00;29.10;;;;;;2261510;61;20474;-60
2021/11/06 01:41:35;0.00;0.00;0.62;0.00;0.00;0.62;2.10;1.50;;;23.00;29.20;;;;;;2260706;61;20512;-60
2021/11/06 01:44:20;0.00;0.00;0.62;0.00;0.00;0.62;1.40;0.97;;;23.00;29.10;;;;;;2261629;61;20829;-61
2021/11/06 01:47:06;0.00;0.00;0.62;0.00;0.00;0.62;1.63;0.90;;;23.00;29.20;;;;;;2261662;61;20376;-60
2021/11/06 01:49:51;0.00;0.00;0.62;0.00;0.00;0.62;1.60;0.90;;;23.00;29.10;;;;;;2261435;61;20389;-59
2021/11/06 01:52:36;0.00;0.00;0.62;0.00;0.00;0.62;2.23;1.10;;;23.00;29.10;;;;;;2261521;61;20686;-58
2021/11/06 01:55:21;0.00;0.00;0.62;0.00;0.00;0.62;1.80;1.30;;;23.00;29.10;;;;;;2261213;61;20405;-60
2021/11/06 01:58:08;0.00;0.00;0.62;0.00;0.00;0.62;1.63;1.20;;;23.00;29.10;;;;;;2261912;61;20362;-60
2021/11/06 02:00:53;0.00;0.00;0.62;0.00;0.00;0.62;1.60;1.20;;;23.00;29.10;;;;;;2261074;61;20582;-58
2021/11/06 02:03:38;0.00;0.00;0.62;0.00;0.00;0.62;1.73;1.20;;;23.00;29.10;;;;;;2261067;61;20462;-59
2021/11/06 02:06:23;0.00;0.00;0.62;0.00;0.00;0.62;2.03;1.30;;;23.00;29.10;;;;;;2261799;61;20416;-59
2021/11/06 02:09:08;0.00;0.00;0.62;0.00;0.00;0.62;2.00;1.40;;;23.00;29.00;;;;;;2261949;61;20404;-59
2021/11/06 02:11:53;0.00;0.00;0.62;0.00;0.00;0.62;1.80;1.30;;;22.90;29.00;;;;;;2261472;61;20457;-59
2021/11/06 02:14:39;0.00;0.00;0.62;0.00;0.00;0.62;2.50;1.30;;;23.00;29.00;;;;;;2261453;61;20358;-60
2021/11/06 02:17:24;0.00;0.00;0.62;0.00;0.00;0.62;2.17;1.80;;;23.00;29.00;;;;;;2261620;61;20370;-58
2021/11/06 02:20:09;0.00;0.00;0.62;0.00;0.00;0.62;2.23;1.70;;;22.90;28.80;;;;;;2261773;61;20420;-60
2021/11/06 02:22:55;0.00;0.00;0.62;0.00;0.00;0.62;2.60;1.77;;;22.90;28.70;;;;;;2261416;61;20378;-60
2021/11/06 02:25:40;0.00;0.00;0.62;0.00;0.00;0.62;3.07;2.07;;;22.90;28.60;;;;;;2261254;61;20486;-57
2021/11/06 02:28:25;0.00;0.00;0.62;0.00;0.00;0.62;2.47;1.60;;;22.90;28.60;;;;;;2261780;61;20762;-58
2021/11/06 02:31:09;0.00;0.00;0.62;0.00;0.00;0.62;2.57;1.70;;;22.80;28.50;;;;;;2261648;61;20381;-59
2021/11/06 02:33:55;0.00;0.00;0.62;0.00;0.00;0.62;3.60;1.90;;;22.90;28.60;;;;;;2261484;61;20401;-59
2021/11/06 02:36:40;0.00;0.00;0.62;0.00;0.00;0.62;2.43;1.90;;;22.80;28.50;;;;;;2261985;61;20373;-59
2021/11/06 02:39:26;0.00;0.00;0.62;0.00;0.00;0.62;2.77;1.60;;;22.80;28.50;;;;;;2262121;61;20361;-59
2021/11/06 02:42:11;0.00;0.00;0.62;0.00;0.00;0.62;3.73;2.20;;;22.70;28.50;;;;;;2262306;61;20386;-58
2021/11/06 02:44:56;0.00;0.00;0.62;0.00;0.00;0.62;4.47;2.23;;;22.70;28.50;;;;;;2262091;61;20393;-59
2021/11/06 02:47:41;0.00;0.00;0.62;0.00;0.00;0.62;2.20;1.70;;;22.70;28.50;;;;;;2261805;61;20648;-57
2021/11/06 02:50:25;0.00;0.00;0.62;0.00;0.00;0.62;2.47;1.63;;;22.70;28.50;;;;;;2262300;61;20587;-59
2021/11/06 02:53:10;0.00;0.00;0.62;0.00;0.00;0.62;2.77;2.43;;;22.60;28.40;;;;;;2262144;61;20359;-59
2021/11/06 02:55:56;0.00;0.00;0.62;0.00;0.00;0.62;2.53;1.50;;;22.60;28.40;;;;;;2261797;61;20465;-60
2021/11/06 02:58:41;0.00;0.00;0.62;0.00;0.00;0.62;2.07;1.70;;;22.50;28.40;;;;;;2262001;61;20358;-59
2021/11/06 03:01:25;0.00;0.00;0.62;0.00;0.00;0.62;4.03;1.80;;;22.50;28.30;;;;;;2261982;61;20598;-59
2021/11/06 03:04:13;0.00;0.00;0.62;0.00;0.00;0.62;2.53;1.50;;;22.50;28.30;;;;;;2261007;61;20385;-57
2021/11/06 03:06:57;0.00;0.00;0.62;0.00;0.00;0.62;2.47;1.80;;;22.50;28.30;;;;;;2261908;61;20438;-58
2021/11/06 03:09:42;0.00;0.00;0.62;0.00;0.00;0.62;3.23;2.03;;;22.50;28.30;;;;;;2261677;61;20363;-59
2021/11/06 03:12:28;0.00;0.00;0.62;0.00;0.00;0.62;3.07;1.70;;;22.50;28.30;;;;;;2262387;61;20408;-59
2021/11/06 03:15:14;0.00;0.00;0.62;0.00;0.00;0.62;3.60;1.73;;;22.50;28.30;;;;;;2262015;61;20733;-58
2021/11/06 03:17:59;0.00;0.00;0.62;0.00;0.00;0.62;2.40;1.60;;;22.50;28.30;;;;;;2261877;61;20528;-59
2021/11/06 03:20:43;0.00;0.00;0.62;0.00;0.00;0.62;2.67;1.60;;;22.40;28.30;;;;;;2261789;61;20357;-59
2021/11/06 03:23:28;0.00;0.00;0.62;0.00;0.00;0.62;2.20;1.63;;;22.40;28.30;;;;;;2261900;61;20452;-59
2021/11/06 03:26:14;0.00;0.00;0.62;0.00;0.00;0.62;2.27;1.40;;;22.40;28.30;;;;;;2262027;61;20432;-59
2021/11/06 03:29:00;0.00;0.00;0.62;0.00;0.00;0.62;2.40;1.50;;;22.40;28.40;;;;;;2261653;61;20397;-59
2021/11/06 03:31:44;0.00;0.00;0.62;0.00;0.00;0.62;2.70;1.70;;;22.40;28.40;;;;;;2261509;61;20381;-59
2021/11/06 03:34:29;0.00;0.00;0.62;0.00;0.00;0.62;3.13;1.83;;;22.40;28.40;;;;;;2261795;61;20434;-59
2021/11/06 03:37:13;0.00;0.00;0.62;0.00;0.00;0.62;3.33;2.10;;;22.40;28.40;;;;;;2261987;61;20646;-59
2021/11/06 03:39:58;0.00;0.00;0.62;0.00;0.00;0.62;2.53;1.60;;;22.40;28.30;;;;;;2261335;61;20350;-59
2021/11/06 03:42:43;0.00;0.00;0.62;0.00;0.00;0.62;2.00;1.50;;;22.40;28.30;;;;;;2261981;61;20469;-60
2021/11/06 03:45:29;0.00;0.00;0.62;0.00;0.00;0.62;2.23;1.87;;;22.40;28.30;;;;;;2262037;61;20398;-59
2021/11/06 03:48:14;0.00;0.00;0.62;0.00;0.00;0.62;3.57;2.40;;;22.30;28.20;;;;;;2261280;61;20732;-58
2021/11/06 03:50:58;0.00;0.00;0.62;0.00;0.00;0.62;3.90;2.10;;;22.30;28.20;;;;;;2261649;61;20476;-59
2021/11/06 03:53:43;0.00;0.00;0.62;0.00;0.00;0.62;3.63;2.70;;;22.30;28.80;;;;;;2262041;61;20461;-59
2021/11/06 03:56:28;0.00;0.00;0.62;0.00;0.00;0.62;4.03;2.80;;;22.20;28.10;;;;;;2262222;61;20366;-60
2021/11/06 03:59:12;0.00;0.00;0.62;0.00;0.00;0.62;3.07;2.33;;;22.20;28.10;;;;;;2261810;61;20401;-59
2021/11/06 04:01:58;0.00;0.00;0.62;0.00;0.00;0.62;3.23;2.20;;;22.20;28.10;;;;;;2261529;61;20400;-59
2021/11/06 04:04:42;0.00;0.00;0.62;0.00;0.00;0.62;3.20;2.33;;;22.10;28.10;;;;;;2262220;61;20358;-60
2021/11/06 04:07:27;0.00;0.00;0.62;0.00;0.00;0.62;2.93;2.10;;;22.10;28.10;;;;;;2262150;61;20397;-59
2021/11/06 04:10:12;0.00;0.00;0.62;0.00;0.00;0.62;4.33;2.40;;;22.10;28.10;;;;;;2261796;61;20726;-59
2021/11/06 04:12:57;0.00;0.00;0.62;0.00;0.00;0.62;2.50;2.10;;;22.00;28.00;;;;;;2261788;61;20388;-60
2021/11/06 04:15:42;0.00;0.00;0.62;0.00;0.00;0.62;3.63;2.07;;;22.00;28.00;;;;;;2261871;61;20374;-60
2021/11/06 04:18:29;0.00;0.00;0.62;0.00;0.00;0.62;4.10;2.37;;;21.90;27.90;;;;;;2261314;61;20438;-60
2021/11/06 04:21:13;0.00;0.00;0.62;0.00;0.00;0.62;3.83;2.63;;;21.90;27.90;;;;;;2261342;61;20382;-59
2021/11/06 04:23:58;0.00;0.00;0.62;0.00;0.00;0.62;4.00;2.50;;;21.90;27.90;;;;;;2261543;61;20378;-60
2021/11/06 04:26:43;0.00;0.00;0.62;0.00;0.00;0.62;2.50;1.90;;;21.90;27.90;;;;;;2261750;61;20370;-60
2021/11/06 04:29:27;0.00;0.00;0.62;0.00;0.00;0.62;3.67;2.63;;;21.80;27.90;;;;;;2261820;61;20361;-59
2021/11/06 04:32:12;0.00;0.00;0.62;0.00;0.00;0.62;3.60;2.33;;;21.80;27.90;;;;;;2261599;61;20374;-59
2021/11/06 04:34:57;0.00;0.00;0.62;0.00;0.00;0.62;4.93;2.20;;;21.80;28.00;;;;;;2261714;61;20581;-58
2021/11/06 04:37:42;0.00;0.00;0.62;0.00;0.00;0.62;2.70;2.20;;;21.80;28.00;;;;;;2262012;61;20362;-59
2021/11/06 04:40:26;0.00;0.00;0.62;0.00;0.00;0.62;3.70;2.20;;;21.70;28.00;;;;;;2261654;61;20767;-59
2021/11/06 04:43:11;0.00;0.00;0.62;0.00;0.00;0.62;4.20;2.00;;;21.70;28.00;;;;;;2261755;61;20397;-58
2021/11/06 04:45:56;0.00;0.00;0.62;0.00;0.00;0.62;2.63;2.20;;;21.70;28.00;;;;;;2261518;61;20373;-58
2021/11/06 04:48:40;0.00;0.00;0.62;0.00;0.00;0.62;3.00;1.93;;;21.60;28.00;;;;;;2261636;61;20413;-59
2021/11/06 04:51:27;0.00;0.00;0.62;0.00;0.00;0.62;3.67;2.53;;;21.60;28.00;;;;;;2261625;61;20389;-59
2021/11/06 04:54:12;0.00;0.00;0.62;0.00;0.00;0.62;5.13;2.90;;;21.60;28.00;;;;;;2261472;61;20358;-59
2021/11/06 04:56:56;0.00;0.00;0.62;0.00;0.00;0.62;4.57;1.90;;;21.60;28.10;;;;;;2261683;61;20362;-59
2021/11/06 04:59:41;0.00;0.00;0.62;0.00;0.00;0.62;2.90;1.90;;;21.60;28.10;;;;;;2261626;61;20358;-59
2021/11/06 05:02:25;0.00;0.00;0.62;0.00;0.00;0.62;5.40;2.60;;;21.50;28.10;;;;;;2261651;61;20796;-59
2021/11/06 05:05:10;0.00;0.00;0.62;0.00;0.00;0.62;4.13;2.40;;;21.50;28.10;;;;;;2261716;61;20392;-58
2021/11/06 05:07:56;0.00;0.00;0.62;0.00;0.00;0.62;2.47;2.00;;;21.50;28.00;;;;;;2261279;61;20354;-59
2021/11/06 05:10:41;0.00;0.00;0.62;0.00;0.00;0.62;5.23;2.27;;;21.40;28.00;;;;;;2261898;61;20378;-59
2021/11/06 05:13:25;0.00;0.00;0.62;0.00;0.00;0.62;3.20;2.30;;;21.40;28.00;;;;;;2261672;61;20373;-59
2021/11/06 05:16:10;0.00;0.00;0.62;0.00;0.00;0.62;3.07;2.00;;;21.40;28.00;;;;;;2260924;61;20385;-60
2021/11/06 05:18:55;0.00;0.00;0.62;0.00;0.00;0.62;3.00;1.83;;;21.30;27.90;;;;;;2261843;61;20636;-58
2021/11/06 05:21:41;0.00;0.00;0.62;0.00;0.00;0.62;2.67;1.80;;;21.30;28.00;;;;;;2261512;61;20454;-59
2021/11/06 05:24:26;0.00;0.00;0.62;0.00;0.00;0.62;3.10;2.60;;;21.30;28.00;;;;;;2261624;61;20365;-59
2021/11/06 05:27:11;0.00;0.00;0.62;0.00;0.00;0.62;4.70;2.53;;;21.30;28.10;;;;;;2261578;61;20588;-59
2021/11/06 05:29:57;0.00;0.00;0.62;0.00;0.00;0.62;5.47;2.47;;;21.30;28.10;;;;;;2261620;61;20358;-59
2021/11/06 05:32:41;0.00;0.00;0.62;0.00;0.00;0.62;3.30;2.27;;;21.30;28.10;;;;;;2261952;61;20369;-59
2021/11/06 05:35:26;0.00;0.00;0.62;0.00;0.00;0.62;4.67;2.60;;;21.30;28.10;;;;;;2261132;61;20757;-59
2021/11/06 05:38:10;0.00;0.00;0.62;0.00;0.00;0.62;3.10;2.13;;;21.20;28.00;;;;;;2261348;61;20354;-59
2021/11/06 05:40:56;0.00;0.00;0.62;0.00;0.00;0.62;3.60;2.37;;;21.20;28.00;;;;;;2261441;61;20357;-59
2021/11/06 05:43:41;0.00;0.00;0.62;0.00;0.00;0.62;4.13;2.77;;;21.20;28.10;;;;;;2261818;61;20381;-60
2021/11/06 05:46:25;0.00;0.00;0.62;0.00;0.00;0.62;5.70;3.17;;;21.10;28.00;;;;;;2261602;61;20416;-59
2021/11/06 05:49:10;0.00;0.00;0.62;0.00;0.00;0.62;4.03;2.83;;;21.20;28.00;;;;;;2261532;61;20396;-59
2021/11/06 05:51:55;0.00;0.00;0.62;0.00;0.00;0.62;4.27;3.00;;;21.10;28.00;;;;;;2261548;61;20428;-59
2021/11/06 05:54:40;0.00;0.00;0.62;0.00;0.00;0.62;3.70;1.97;;;21.10;28.10;;;;;;2261761;61;20357;-60
2021/11/06 05:57:26;0.00;0.00;0.62;0.00;0.00;0.62;3.70;2.93;;;21.10;28.10;;;;;;2261513;61;20396;-60
2021/11/06 06:00:15;0.00;0.00;0.62;0.00;0.00;0.62;6.40;2.73;;;21.10;28.10;;;;;;2261196;61;20454;-59
2021/11/06 06:03:00;0.00;0.00;0.62;0.00;0.00;0.62;3.63;2.20;;;21.10;28.10;;;;;;2261841;61;20406;-59
2021/11/06 06:05:45;0.00;0.00;0.62;0.00;0.00;0.62;4.57;3.07;;;21.10;28.10;;;;;;2261711;61;20720;-58
2021/11/06 06:08:29;0.00;0.00;0.62;0.00;0.00;0.62;3.90;2.70;;;21.10;28.10;;;;;;2261519;61;20785;-57
2021/11/06 06:11:14;0.00;0.00;0.62;0.00;0.00;0.62;3.33;2.73;;;21.00;28.00;;;;;;2261876;61;20417;-57
2021/11/06 06:14:00;0.00;0.00;0.62;0.00;0.00;0.62;2.83;2.23;;;21.00;28.10;;;;;;2262282;61;20476;-60
2021/11/06 06:16:44;0.00;0.00;0.62;0.00;0.00;0.62;4.27;2.80;;;21.00;28.10;;;;;;2262247;61;20362;-60
2021/11/06 06:19:29;0.00;0.00;0.62;0.00;0.00;0.62;4.73;2.40;;;21.00;28.10;;;;;;2262048;61;20730;-58
2021/11/06 06:22:14;0.00;0.00;0.62;0.00;0.00;0.62;3.33;2.30;;;21.00;28.10;;;;;;2261872;61;20401;-59
2021/11/06 06:24:58;0.00;0.00;0.62;0.00;0.00;0.62;3.10;2.03;;;21.00;28.20;;;;;;2262502;61;20362;-59
2021/11/06 06:27:43;0.00;0.00;0.62;0.00;0.00;0.62;5.40;2.27;;;21.00;28.20;;;;;;2262126;61;20358;-60
2021/11/06 06:30:29;0.00;0.00;0.62;0.00;0.00;0.62;4.50;3.33;;;21.00;28.20;;;;;;2261895;61;20366;-58
2021/11/06 06:33:13;0.00;0.00;0.62;0.00;0.00;0.62;5.40;2.70;;;21.00;28.20;;;;;;2262054;61;20358;-60
2021/11/06 06:35:58;0.00;0.00;0.62;0.00;0.00;0.62;6.00;3.13;;;21.00;28.20;;;;;;2262196;61;20738;-59
2021/11/06 06:38:42;0.00;0.00;0.62;0.00;0.00;0.62;4.20;3.70;;;20.90;28.10;;;;;;2262259;61;20397;-58
2021/11/06 06:41:27;0.00;0.00;0.62;0.00;0.00;0.62;5.67;3.27;;;20.90;28.10;;;;;;2261935;61;20385;-58
2021/11/06 06:44:12;0.00;0.00;0.62;0.00;0.00;0.62;4.87;3.33;;;20.90;28.00;;;;;;2261823;61;20361;-60
2021/11/06 06:46:58;0.00;0.00;0.62;0.00;0.00;0.62;6.00;3.47;;;20.90;28.00;;;;;;2262509;61;20349;-58
2021/11/06 06:49:45;0.00;0.00;0.62;0.00;0.00;0.62;6.37;4.33;;;20.90;28.10;;;;;;2262277;61;20361;-57
2021/11/06 06:52:29;0.00;0.00;0.62;0.00;0.00;0.62;4.37;3.97;;;20.90;28.10;;;;;;2261863;61;20458;-60
2021/11/06 06:55:14;0.00;0.00;0.62;0.00;0.00;0.62;4.10;3.27;;;20.90;28.10;;;;;;2261990;61;20354;-59
2021/11/06 06:57:58;0.00;0.00;0.62;0.00;0.00;0.62;4.40;3.23;;;20.90;28.10;;;;;;2262030;61;20358;-60
2021/11/06 07:00:43;0.00;0.00;0.62;0.00;0.00;0.62;7.93;4.23;;;20.80;28.10;;;;;;2261482;61;20358;-60
2021/11/06 07:03:29;0.00;0.00;0.62;0.00;0.00;0.62;3.80;3.40;;;20.80;28.10;;;;;;2260933;61;20394;-58
2021/11/06 07:06:13;0.00;0.00;0.62;0.00;0.00;0.62;4.20;3.80;;;20.80;28.10;;;;;;2259927;61;20827;-60
2021/11/06 07:08:59;0.00;0.00;0.62;0.00;0.00;0.62;5.23;4.73;;;20.70;28.00;;;;;;2261425;61;20362;-60
2021/11/06 07:11:44;0.00;0.00;0.62;0.00;0.00;0.62;4.90;4.07;;;20.70;28.00;;;;;;2261152;61;20496;-59
2021/11/06 07:14:29;0.00;0.00;0.62;0.00;0.00;0.62;4.43;3.30;;;20.70;28.00;;;;;;2260979;61;20365;-60
2021/11/06 07:17:14;0.00;0.00;0.62;0.00;0.00;0.62;5.00;3.90;;;20.70;28.10;;;;;;2261442;61;20706;-60
2021/11/06 07:20:00;0.00;0.00;0.62;0.00;0.00;0.62;4.53;4.10;;;20.70;28.20;;;;;;2262043;61;20366;-59
2021/11/06 07:22:44;0.00;0.00;0.62;0.00;0.00;0.62;6.27;4.70;;;20.60;28.20;;;;;;2261912;61;20597;-55
2021/11/06 07:25:29;0.00;0.00;0.62;0.00;0.00;0.62;6.27;5.63;;;20.60;28.10;;;;;;2261965;61;20392;-59
2021/11/06 07:28:13;0.00;0.00;0.62;0.00;0.00;0.62;9.50;6.00;;;20.60;28.00;;;;;;2262130;61;20567;-60
2021/11/06 07:30:58;0.00;0.00;0.62;0.00;0.00;0.62;7.47;5.50;;;20.50;27.90;;;;;;2262190;61;20393;-61
2021/11/06 07:33:46;0.00;0.00;0.62;0.00;0.00;0.62;9.20;4.80;;;20.50;27.90;;;;;;2261921;61;20729;-57
2021/11/06 07:36:32;0.00;0.00;0.62;0.00;0.00;0.62;5.97;4.93;;;20.40;27.90;;;;;;2261661;61;20366;-60
2021/11/06 07:39:17;0.00;0.00;0.62;0.00;0.00;0.62;9.33;6.07;;;20.40;28.00;;;;;;2262328;61;20357;-58
2021/11/06 07:42:02;0.00;0.00;0.62;0.00;0.00;0.62;5.33;3.97;;;20.30;28.00;;;;;;2262165;61;20413;-59
2021/11/06 07:44:46;0.00;0.00;0.62;0.00;0.00;0.62;4.90;3.57;;;20.30;28.10;;;;;;2262018;61;20354;-59
2021/11/06 07:47:31;0.00;0.00;0.62;0.00;0.00;0.62;5.33;3.53;;;20.20;28.20;;;;;;2261867;61;20429;-60
2021/11/06 07:50:18;0.00;0.00;0.62;0.00;0.00;0.62;4.00;2.77;;;20.20;28.30;;;;;;2261851;61;20358;-61
2021/11/06 07:53:04;0.00;0.00;0.62;0.00;0.00;0.62;3.70;2.50;;;20.20;28.30;;;;;;2261577;61;20413;-60
2021/11/06 07:55:49;0.00;0.00;0.62;0.00;0.00;0.62;3.23;2.30;;;20.20;28.30;;;;;;2261834;61;20405;-58
2021/11/06 07:58:34;0.00;0.00;0.62;0.00;0.00;0.62;4.47;2.77;;;20.20;28.30;;;;;;2261176;61;20382;-59
2021/11/06 08:01:20;0.00;0.00;0.62;0.00;0.00;0.62;3.07;2.03;;;20.30;28.40;;;;;;2262011;61;20389;-60
2021/11/06 08:04:05;0.00;0.00;0.62;0.00;0.00;0.62;3.43;2.40;;;20.30;28.40;;;;;;2261914;61;20462;-58
2021/11/06 08:06:49;0.00;0.00;0.62;0.00;0.00;0.62;4.00;1.80;;;20.30;28.40;;;;;;2261489;61;20725;-58
2021/11/06 08:09:35;0.00;0.00;0.62;0.00;0.00;0.62;2.67;2.00;;;20.40;28.40;;;;;;2261832;61;20405;-60
2021/11/06 08:12:20;0.00;0.00;0.62;0.00;0.00;0.62;2.70;2.30;;;20.40;28.40;;;;;;2261565;61;20481;-60
2021/11/06 08:15:06;0.00;0.00;0.62;0.00;0.00;0.62;3.00;1.93;;;20.40;28.40;;;;;;2261580;61;20742;-60
2021/11/06 08:17:53;0.00;0.00;0.62;0.00;0.00;0.62;2.97;2.10;;;20.50;28.40;;;;;;2261908;61;20374;-60
2021/11/06 08:20:38;0.00;0.00;0.62;0.00;0.00;0.62;1.80;1.37;;;20.50;28.40;;;;;;2261107;61;20430;-58
2021/11/06 08:23:23;0.00;0.00;0.62;0.00;0.00;0.62;2.40;1.60;;;20.50;28.40;;;;;;2261451;61;20452;-58
2021/11/06 08:26:09;0.00;0.00;0.62;0.00;0.00;0.62;3.80;1.97;;;20.50;28.40;;;;;;2261863;61;20365;-58
2021/11/06 08:28:54;0.00;0.00;0.62;0.00;0.00;0.62;2.97;2.20;;;20.50;28.40;;;;;;2260850;61;20706;-61
2021/11/06 08:31:39;0.00;0.00;0.62;0.00;0.00;0.62;2.23;1.63;;;20.60;28.40;;;;;;2261764;61;20449;-59
2021/11/06 08:34:24;0.00;0.00;0.62;0.00;0.00;0.62;3.10;1.77;;;20.60;28.40;;;;;;2261421;61;20425;-60
2021/11/06 08:37:09;0.00;0.00;0.62;0.00;0.00;0.62;2.60;1.73;;;20.60;28.30;;;;;;2261676;61;20703;-59
2021/11/06 08:39:54;0.00;0.00;0.62;0.00;0.00;0.62;2.00;1.50;;;20.70;28.40;;;;;;2261722;61;20358;-60
2021/11/06 08:42:39;0.00;0.00;0.62;0.00;0.00;0.62;2.00;1.43;;;20.70;28.40;;;;;;2261100;61;20440;-60
2021/11/06 08:45:24;0.00;0.00;0.62;0.00;0.00;0.62;2.10;1.40;;;20.70;28.40;;;;;;2261859;61;20839;-60
2021/11/06 08:48:09;0.00;0.00;0.62;0.00;0.00;0.62;1.93;1.43;;;20.70;28.40;;;;;;2261825;61;20602;-60
2021/11/06 08:50:54;0.00;0.00;0.62;0.00;0.00;0.62;2.53;1.80;;;20.70;28.40;;;;;;2261031;61;20746;-59
2021/11/06 08:53:38;0.00;0.00;0.62;0.00;0.00;0.62;2.27;1.37;;;20.80;28.40;;;;;;2261808;61;20757;-60
2021/11/06 08:56:27;0.00;0.00;0.62;0.00;0.00;0.62;2.70;1.60;;;20.80;28.40;;;;;;2261387;61;20385;-61
2021/11/06 08:59:16;0.00;0.00;0.62;0.00;0.00;0.62;3.67;1.73;;;20.80;28.40;;;;;;2261438;61;20722;-59
2021/11/06 09:02:01;0.00;0.00;0.62;0.00;0.00;0.62;2.90;1.50;;;20.80;28.40;;;;;;2261669;61;20498;-59
2021/11/06 09:04:49;0.00;0.00;0.62;0.00;0.00;0.62;1.90;1.67;;;20.80;28.40;;;;;;2261334;61;20370;-60
2021/11/06 09:07:35;0.00;0.00;0.62;0.00;0.00;0.62;2.57;1.50;;;20.80;28.40;;;;;;2261745;61;20366;-59
2021/11/06 09:10:21;0.00;0.00;0.62;0.00;0.00;0.62;2.37;1.87;;;20.90;28.50;;;;;;2261594;61;20397;-57
2021/11/06 09:13:05;0.00;0.00;0.62;0.00;0.00;0.62;1.80;1.40;;;20.80;28.40;;;;;;2261169;61;20753;-57
2021/11/06 09:15:51;0.00;0.00;0.62;0.00;0.00;0.62;2.40;1.90;;;20.90;28.40;;;;;;2261641;61;20722;-59
2021/11/06 09:18:38;0.00;0.00;0.62;0.00;0.00;0.62;2.60;1.57;;;20.90;28.50;;;;;;2261475;61;20362;-58
2021/11/06 09:21:24;0.00;0.00;0.62;0.00;0.00;0.62;2.40;1.67;;;20.90;28.40;;;;;;2261296;61;20493;-58
2021/11/06 09:24:09;0.00;0.00;0.62;0.00;0.00;0.62;1.93;1.40;;;20.90;28.40;;;;;;2261605;61;20617;-60
2021/11/06 09:26:53;0.00;0.00;0.62;0.00;0.00;0.62;2.93;1.60;;;20.90;28.40;;;;;;2261140;61;20784;-58
2021/11/06 09:29:40;0.00;0.00;0.62;0.00;0.00;0.62;2.30;1.40;;;20.90;28.40;;;;;;2261556;61;20361;-58
2021/11/06 09:32:26;0.00;0.00;0.62;0.00;0.00;0.62;2.17;1.60;;;20.90;28.40;;;;;;2261586;61;20746;-58
2021/11/06 09:35:12;0.00;0.00;0.62;0.00;0.00;0.62;2.03;1.47;;;21.00;28.40;;;;;;2261062;61;20378;-59
2021/11/06 09:37:57;0.00;0.00;0.62;0.00;0.00;0.62;2.07;1.40;;;21.00;28.40;;;;;;2261631;61;20377;-59
2021/11/06 09:40:42;0.00;0.00;0.62;0.00;0.00;0.62;2.47;1.30;;;21.00;28.40;;;;;;2261197;61;20576;-61
2021/11/06 09:43:27;0.00;0.00;0.62;0.00;0.00;0.62;3.10;1.37;;;21.00;28.40;;;;;;2261271;61;20451;-60
2021/11/06 09:46:13;0.00;0.00;0.62;0.00;0.00;0.62;1.70;1.20;;;21.00;28.40;;;;;;2262123;61;20438;-60
2021/11/06 09:48:59;0.00;0.00;0.62;0.00;0.00;0.62;2.13;1.10;;;21.10;28.40;;;;;;2262099;61;20591;-57
2021/11/06 09:51:43;0.00;0.00;0.62;0.00;0.00;0.62;1.60;1.30;;;21.00;28.30;;;;;;2262334;61;20393;-58
2021/11/06 09:54:29;0.00;0.00;0.62;0.00;0.00;0.62;2.10;1.50;;;21.10;28.40;;;;;;2262318;61;20392;-59
2021/11/06 09:57:14;0.00;0.00;0.62;0.00;0.00;0.62;1.93;1.43;;;21.10;28.40;;;;;;2261784;61;20721;-58
2021/11/06 09:59:58;0.00;0.00;0.62;0.00;0.00;0.62;2.20;1.50;;;21.10;28.40;;;;;;2262211;61;20400;-58
2021/11/06 10:02:43;0.00;0.00;0.62;0.00;0.00;0.62;1.73;1.27;;;21.10;28.40;;;;;;2262213;61;20385;-61
2021/11/06 10:06:01;0.00;0.00;0.62;0.00;0.00;0.62;1.70;1.30;;;21.10;28.40;;;;;;2261929;61;20370;-59
2021/11/06 10:08:47;0.00;0.00;0.62;0.00;0.00;0.62;1.90;1.23;;;21.10;28.30;;;;;;2249358;61;20365;-60
2021/11/06 10:11:32;0.00;0.00;0.62;0.00;0.00;0.62;2.77;1.57;;;21.10;28.30;;;;;;2261568;61;20401;-61
2021/11/06 10:14:20;0.00;0.00;0.62;0.00;0.00;0.62;2.20;1.60;;;21.10;28.30;;;;;;2261869;61;20397;-60
2021/11/06 10:17:05;0.00;0.00;0.62;0.00;0.00;0.62;2.90;2.03;;;21.10;28.30;;;;;;2262289;61;20409;-60
2021/11/06 10:19:52;0.00;0.00;0.62;0.00;0.00;0.62;3.13;1.90;;;21.10;28.30;;;;;;2261589;61;20365;-59
2021/11/06 10:22:38;0.00;0.00;0.62;0.00;0.00;0.62;3.63;2.20;;;21.20;28.30;;;;;;2261768;61;20594;-58
2021/11/06 10:25:23;0.00;0.00;0.62;0.00;0.00;0.62;5.20;2.50;;;21.20;28.30;;;;;;2262031;61;20725;-60
2021/11/06 10:28:14;0.00;0.00;0.62;0.00;0.00;0.62;5.27;2.53;;;21.20;28.30;;;;;;2261841;61;20529;-60
2021/11/06 10:31:03;0.00;0.00;0.62;0.00;0.00;0.62;4.00;2.50;;;21.20;28.30;;;;;;2261734;61;20389;-60
2021/11/06 10:33:49;0.00;0.00;0.62;0.00;0.00;0.62;3.50;2.20;;;21.20;28.30;;;;;;2261633;61;20361;-60
2021/11/06 10:36:34;0.00;0.00;0.62;0.00;0.00;0.62;3.67;2.23;;;21.20;28.30;;;;;;2262101;61;20362;-60
2021/11/06 10:39:20;0.00;0.00;0.62;0.00;0.00;0.62;3.57;2.30;;;21.20;28.30;;;;;;2262116;61;20453;-60
2021/11/06 10:42:14;0.00;0.00;0.62;0.00;0.00;0.62;3.30;2.63;;;21.20;28.30;;;;;;2261617;61;20381;-60
2021/11/06 10:45:10;0.00;0.00;0.62;0.00;0.00;0.62;4.17;2.47;;;21.20;28.30;;;;;;2261790;61;20438;-60
2021/11/06 10:47:59;0.00;0.00;0.62;0.00;0.00;0.62;5.67;2.30;;;21.30;28.30;;;;;;2261863;61;20385;-60
2021/11/06 10:50:51;0.00;0.00;0.62;0.00;0.00;0.62;2.80;2.30;;;21.20;28.20;;;;;;2261977;61;20607;-60
2021/11/06 10:53:45;0.00;0.00;0.62;0.00;0.00;0.62;3.90;2.53;;;21.30;28.30;;;;;;2262155;61;20737;-59